sensor_id;sensor_type;location;lat;lon;timestamp;temperature;humidity
56869;DHT22;42754;0.000;0.000;2022-12-20T00:00:42;8.70;99.90
56869;DHT22;42754;0.000;0.000;2022-12-20T00:03:07;8.70;99.90
56869;DHT22;42754;0.000;0.000;2022-12-20T00:05:39;8.70;99.90
56869;DHT22;42754;0.000;0.000;2022-12-20T00:08:06;8.80;99.90
56869;DHT22;42754;0.000;0.000;2022-12-20T00:10:35;8.70;99.90
56869;DHT22;42754;0.000;0.000;2022-12-20T00:13:01;8.70;99.90
56869;DHT22;42754;0.000;0.000;2022-12-20T00:15:26;8.70;99.90
56869;DHT22;42754;0.000;0.000;2022-12-20T00:17:52;8.60;99.90
56869;DHT22;42754;0.000;0.000;2022-12-20T00:20:18;8.70;99.90
56869;DHT22;42754;0.000;0.000;2022-12-20T00:22:43;8.70;99.90
56869;DHT22;42754;0.000;0.000;2022-12-20T00:25:10;8.70;99.90
56869;DHT22;42754;0.000;0.000;2022-12-20T00:27:36;8.70;99.90
56869;DHT22;42754;0.000;0.000;2022-12-20T00:30:01;8.70;99.90
56869;DHT22;42754;0.000;0.000;2022-12-20T00:32:28;8.70;99.90
56869;DHT22;42754;0.000;0.000;2022-12-20T00:34:53;8.80;99.90
56869;DHT22;42754;0.000;0.000;2022-12-20T00:37:19;8.80;99.90
56869;DHT22;42754;0.000;0.000;2022-12-20T00:39:45;8.80;99.90
56869;DHT22;42754;0.000;0.000;2022-12-20T00:42:10;8.80;99.90
56869;DHT22;42754;0.000;0.000;2022-12-20T00:44:36;8.80;99.90
56869;DHT22;42754;0.000;0.000;2022-12-20T00:47:01;8.90;99.90
56869;DHT22;42754;0.000;0.000;2022-12-20T00:49:27;8.90;99.90
56869;DHT22;42754;0.000;0.000;2022-12-20T00:51:52;9.10;99.90
56869;DHT22;42754;0.000;0.000;2022-12-20T00:54:18;9.10;99.90
56869;DHT22;42754;0.000;0.000;2022-12-20T00:56:43;9.00;99.90
56869;DHT22;42754;0.000;0.000;2022-12-20T00:59:09;9.10;99.90
56869;DHT22;42754;0.000;0.000;2022-12-20T01:01:35;9.10;99.90
56869;DHT22;42754;0.000;0.000;2022-12-20T01:04:00;9.20;99.90
56869;DHT22;42754;0.000;0.000;2022-12-20T01:06:26;9.20;99.90
56869;DHT22;42754;0.000;0.000;2022-12-20T01:08:53;9.30;99.90
56869;DHT22;42754;0.000;0.000;2022-12-20T01:11:19;9.40;99.90
56869;DHT22;42754;0.000;0.000;2022-12-20T01:13:46;9.50;99.90
56869;DHT22;42754;0.000;0.000;2022-12-20T01:18:40;9.50;99.90
56869;DHT22;42754;0.000;0.000;2022-12-20T01:21:07;9.50;99.90
56869;DHT22;42754;0.000;0.000;2022-12-20T01:23:33;9.50;99.90
56869;DHT22;42754;0.000;0.000;2022-12-20T01:25:59;9.40;99.90
56869;DHT22;42754;0.000;0.000;2022-12-20T01:28:24;9.60;99.90
56869;DHT22;42754;0.000;0.000;2022-12-20T01:30:50;9.50;99.90
56869;DHT22;42754;0.000;0.000;2022-12-20T01:33:16;9.50;99.90
56869;DHT22;42754;0.000;0.000;2022-12-20T01:35:41;9.60;99.90
56869;DHT22;42754;0.000;0.000;2022-12-20T01:38:07;9.60;99.90
56869;DHT22;42754;0.000;0.000;2022-12-20T01:40:32;9.60;99.90
56869;DHT22;42754;0.000;0.000;2022-12-20T01:42:58;9.50;99.90
56869;DHT22;42754;0.000;0.000;2022-12-20T01:45:26;9.50;99.90
56869;DHT22;42754;0.000;0.000;2022-12-20T01:47:52;9.60;99.90
56869;DHT22;42754;0.000;0.000;2022-12-20T01:50:18;9.50;99.90
56869;DHT22;42754;0.000;0.000;2022-12-20T01:52:44;9.50;99.90
56869;DHT22;42754;0.000;0.000;2022-12-20T01:55:11;9.60;99.90
56869;DHT22;42754;0.000;0.000;2022-12-20T01:57:41;9.60;99.90
56869;DHT22;42754;0.000;0.000;2022-12-20T02:00:07;9.50;99.90
56869;DHT22;42754;0.000;0.000;2022-12-20T02:02:34;9.50;99.90
56869;DHT22;42754;0.000;0.000;2022-12-20T02:04:59;9.40;99.90
56869;DHT22;42754;0.000;0.000;2022-12-20T02:07:26;9.40;99.90
56869;DHT22;42754;0.000;0.000;2022-12-20T02:09:52;9.30;99.90
56869;DHT22;42754;0.000;0.000;2022-12-20T02:12:22;9.40;99.90
56869;DHT22;42754;0.000;0.000;2022-12-20T02:20:07;9.30;99.90
56869;DHT22;42754;0.000;0.000;2022-12-20T02:27:51;9.20;99.90
56869;DHT22;42754;0.000;0.000;2022-12-20T02:30:19;9.20;99.90
56869;DHT22;42754;0.000;0.000;2022-12-20T02:35:17;9.20;99.90
56869;DHT22;42754;0.000;0.000;2022-12-20T02:37:47;9.20;99.90
56869;DHT22;42754;0.000;0.000;2022-12-20T02:40:13;9.20;99.90
56869;DHT22;42754;0.000;0.000;2022-12-20T02:42:39;9.10;99.90
56869;DHT22;42754;0.000;0.000;2022-12-20T02:45:05;9.10;99.90
56869;DHT22;42754;0.000;0.000;2022-12-20T02:50:07;9.10;99.90
56869;DHT22;42754;0.000;0.000;2022-12-20T02:52:34;9.10;99.90
56869;DHT22;42754;0.000;0.000;2022-12-20T02:55:00;9.10;99.90
56869;DHT22;42754;0.000;0.000;2022-12-20T02:57:28;9.10;99.90
56869;DHT22;42754;0.000;0.000;2022-12-20T03:02:22;9.10;99.90
56869;DHT22;42754;0.000;0.000;2022-12-20T03:04:48;9.10;99.90
56869;DHT22;42754;0.000;0.000;2022-12-20T03:07:14;9.10;99.90
56869;DHT22;42754;0.000;0.000;2022-12-20T03:09:42;9.10;99.90
56869;DHT22;42754;0.000;0.000;2022-12-20T03:12:08;9.10;99.90
56869;DHT22;42754;0.000;0.000;2022-12-20T03:14:36;9.10;99.90
56869;DHT22;42754;0.000;0.000;2022-12-20T03:17:02;9.10;99.90
56869;DHT22;42754;0.000;0.000;2022-12-20T03:19:28;9.10;99.90
56869;DHT22;42754;0.000;0.000;2022-12-20T03:21:53;9.10;99.90
56869;DHT22;42754;0.000;0.000;2022-12-20T03:24:19;9.10;99.90
56869;DHT22;42754;0.000;0.000;2022-12-20T03:26:44;9.10;99.90
56869;DHT22;42754;0.000;0.000;2022-12-20T03:29:10;9.10;99.90
56869;DHT22;42754;0.000;0.000;2022-12-20T03:31:36;9.10;99.90
56869;DHT22;42754;0.000;0.000;2022-12-20T03:34:01;9.10;99.90
56869;DHT22;42754;0.000;0.000;2022-12-20T03:36:27;9.10;99.90
56869;DHT22;42754;0.000;0.000;2022-12-20T03:38:53;9.10;99.90
56869;DHT22;42754;0.000;0.000;2022-12-20T03:41:19;9.00;99.90
56869;DHT22;42754;0.000;0.000;2022-12-20T03:43:46;9.00;99.90
56869;DHT22;42754;0.000;0.000;2022-12-20T03:46:12;9.10;99.90
56869;DHT22;42754;0.000;0.000;2022-12-20T03:48:37;9.10;99.90
56869;DHT22;42754;0.000;0.000;2022-12-20T03:51:03;9.10;99.90
56869;DHT22;42754;0.000;0.000;2022-12-20T03:53:28;9.00;99.90
56869;DHT22;42754;0.000;0.000;2022-12-20T03:55:55;9.10;99.90
56869;DHT22;42754;0.000;0.000;2022-12-20T03:58:20;9.10;99.90
56869;DHT22;42754;0.000;0.000;2022-12-20T04:00:46;9.10;99.90
56869;DHT22;42754;0.000;0.000;2022-12-20T04:03:12;9.10;99.90
56869;DHT22;42754;0.000;0.000;2022-12-20T04:05:37;9.10;99.90
56869;DHT22;42754;0.000;0.000;2022-12-20T04:08:03;9.00;99.90
56869;DHT22;42754;0.000;0.000;2022-12-20T04:10:29;9.10;99.90
56869;DHT22;42754;0.000;0.000;2022-12-20T04:12:54;9.10;99.90
56869;DHT22;42754;0.000;0.000;2022-12-20T04:15:20;9.10;99.90
56869;DHT22;42754;0.000;0.000;2022-12-20T04:17:45;9.10;99.90
56869;DHT22;42754;0.000;0.000;2022-12-20T04:20:15;9.10;99.90
56869;DHT22;42754;0.000;0.000;2022-12-20T04:22:47;9.10;99.90
56869;DHT22;42754;0.000;0.000;2022-12-20T04:25:13;9.10;99.90
56869;DHT22;42754;0.000;0.000;2022-12-20T04:27:38;9.10;99.90
56869;DHT22;42754;0.000;0.000;2022-12-20T04:30:04;9.10;99.90
56869;DHT22;42754;0.000;0.000;2022-12-20T04:32:31;9.10;99.90
56869;DHT22;42754;0.000;0.000;2022-12-20T04:34:56;9.10;99.90
56869;DHT22;42754;0.000;0.000;2022-12-20T04:37:22;9.10;99.90
56869;DHT22;42754;0.000;0.000;2022-12-20T04:39:48;9.20;99.90
56869;DHT22;42754;0.000;0.000;2022-12-20T04:42:13;9.20;99.90
56869;DHT22;42754;0.000;0.000;2022-12-20T04:44:39;9.20;99.90
56869;DHT22;42754;0.000;0.000;2022-12-20T04:47:04;9.20;99.90
56869;DHT22;42754;0.000;0.000;2022-12-20T04:49:30;9.20;99.90
56869;DHT22;42754;0.000;0.000;2022-12-20T04:51:55;9.20;99.90
56869;DHT22;42754;0.000;0.000;2022-12-20T04:54:41;9.30;99.90
56869;DHT22;42754;0.000;0.000;2022-12-20T04:57:06;9.30;99.90
56869;DHT22;42754;0.000;0.000;2022-12-20T04:59:34;9.30;99.90
56869;DHT22;42754;0.000;0.000;2022-12-20T05:02:00;9.30;99.90
56869;DHT22;42754;0.000;0.000;2022-12-20T05:04:25;9.40;99.90
56869;DHT22;42754;0.000;0.000;2022-12-20T05:06:51;9.40;99.90
56869;DHT22;42754;0.000;0.000;2022-12-20T05:09:16;9.40;99.90
56869;DHT22;42754;0.000;0.000;2022-12-20T05:11:42;9.40;99.90
56869;DHT22;42754;0.000;0.000;2022-12-20T05:14:08;9.40;99.90
56869;DHT22;42754;0.000;0.000;2022-12-20T05:16:33;9.50;99.90
56869;DHT22;42754;0.000;0.000;2022-12-20T05:18:59;9.40;99.90
56869;DHT22;42754;0.000;0.000;2022-12-20T05:21:24;9.50;99.90
56869;DHT22;42754;0.000;0.000;2022-12-20T05:24:08;9.50;99.90
56869;DHT22;42754;0.000;0.000;2022-12-20T05:26:53;9.50;99.90
56869;DHT22;42754;0.000;0.000;2022-12-20T05:29:19;9.50;99.90
56869;DHT22;42754;0.000;0.000;2022-12-20T05:31:44;9.50;99.90
56869;DHT22;42754;0.000;0.000;2022-12-20T05:34:10;9.50;99.90
56869;DHT22;42754;0.000;0.000;2022-12-20T05:36:36;9.50;99.90
56869;DHT22;42754;0.000;0.000;2022-12-20T05:39:01;9.50;99.90
56869;DHT22;42754;0.000;0.000;2022-12-20T05:41:27;9.60;99.90
56869;DHT22;42754;0.000;0.000;2022-12-20T05:43:52;9.50;99.90
56869;DHT22;42754;0.000;0.000;2022-12-20T05:46:18;9.50;99.90
56869;DHT22;42754;0.000;0.000;2022-12-20T05:48:44;9.50;99.90
56869;DHT22;42754;0.000;0.000;2022-12-20T05:51:09;9.50;99.90
56869;DHT22;42754;0.000;0.000;2022-12-20T05:53:35;9.50;99.90
56869;DHT22;42754;0.000;0.000;2022-12-20T05:56:00;9.50;99.90
56869;DHT22;42754;0.000;0.000;2022-12-20T05:58:26;9.50;99.90
56869;DHT22;42754;0.000;0.000;2022-12-20T06:00:53;9.50;99.90
56869;DHT22;42754;0.000;0.000;2022-12-20T06:03:18;9.50;99.90
56869;DHT22;42754;0.000;0.000;2022-12-20T06:05:44;9.50;99.90
56869;DHT22;42754;0.000;0.000;2022-12-20T06:08:10;9.50;99.90
56869;DHT22;42754;0.000;0.000;2022-12-20T06:10:36;9.50;99.90
56869;DHT22;42754;0.000;0.000;2022-12-20T06:13:02;9.50;99.90
56869;DHT22;42754;0.000;0.000;2022-12-20T06:15:28;9.50;99.90
56869;DHT22;42754;0.000;0.000;2022-12-20T06:17:54;9.50;99.90
56869;DHT22;42754;0.000;0.000;2022-12-20T06:20:19;9.50;99.90
56869;DHT22;42754;0.000;0.000;2022-12-20T06:22:45;9.50;99.90
56869;DHT22;42754;0.000;0.000;2022-12-20T06:25:10;9.50;99.90
56869;DHT22;42754;0.000;0.000;2022-12-20T06:27:37;9.50;99.90
56869;DHT22;42754;0.000;0.000;2022-12-20T06:30:03;9.50;99.90
56869;DHT22;42754;0.000;0.000;2022-12-20T06:32:29;9.50;99.90
56869;DHT22;42754;0.000;0.000;2022-12-20T06:34:55;9.40;99.90
56869;DHT22;42754;0.000;0.000;2022-12-20T06:37:21;9.50;99.90
56869;DHT22;42754;0.000;0.000;2022-12-20T06:39:46;9.50;99.90
56869;DHT22;42754;0.000;0.000;2022-12-20T06:42:12;9.50;99.90
56869;DHT22;42754;0.000;0.000;2022-12-20T06:44:37;9.50;99.90
56869;DHT22;42754;0.000;0.000;2022-12-20T06:47:03;9.50;99.90
56869;DHT22;42754;0.000;0.000;2022-12-20T06:49:28;9.50;99.90
56869;DHT22;42754;0.000;0.000;2022-12-20T06:51:54;9.50;99.90
56869;DHT22;42754;0.000;0.000;2022-12-20T06:54:20;9.60;99.90
56869;DHT22;42754;0.000;0.000;2022-12-20T06:56:46;9.60;99.90
56869;DHT22;42754;0.000;0.000;2022-12-20T06:59:11;9.50;99.90
56869;DHT22;42754;0.000;0.000;2022-12-20T07:01:37;9.50;99.90
56869;DHT22;42754;0.000;0.000;2022-12-20T07:04:02;9.50;99.90
56869;DHT22;42754;0.000;0.000;2022-12-20T07:06:28;9.50;99.90
56869;DHT22;42754;0.000;0.000;2022-12-20T07:08:54;9.60;99.90
56869;DHT22;42754;0.000;0.000;2022-12-20T07:11:20;9.60;99.90
56869;DHT22;42754;0.000;0.000;2022-12-20T07:13:45;9.60;99.90
56869;DHT22;42754;0.000;0.000;2022-12-20T07:16:11;9.50;99.90
56869;DHT22;42754;0.000;0.000;2022-12-20T07:18:36;9.60;99.90
56869;DHT22;42754;0.000;0.000;2022-12-20T07:21:03;9.60;99.90
56869;DHT22;42754;0.000;0.000;2022-12-20T07:23:29;9.60;99.90
56869;DHT22;42754;0.000;0.000;2022-12-20T07:25:55;9.60;99.90
56869;DHT22;42754;0.000;0.000;2022-12-20T07:28:21;9.60;99.90
56869;DHT22;42754;0.000;0.000;2022-12-20T07:30:47;9.60;99.90
56869;DHT22;42754;0.000;0.000;2022-12-20T07:33:12;9.50;99.90
56869;DHT22;42754;0.000;0.000;2022-12-20T07:35:38;9.50;99.90
56869;DHT22;42754;0.000;0.000;2022-12-20T07:38:04;9.50;99.90
56869;DHT22;42754;0.000;0.000;2022-12-20T07:40:30;9.40;99.90
56869;DHT22;42754;0.000;0.000;2022-12-20T07:42:56;9.50;99.90
56869;DHT22;42754;0.000;0.000;2022-12-20T07:45:21;9.50;99.90
56869;DHT22;42754;0.000;0.000;2022-12-20T07:47:47;9.50;99.90
56869;DHT22;42754;0.000;0.000;2022-12-20T07:50:13;9.50;99.90
56869;DHT22;42754;0.000;0.000;2022-12-20T07:52:39;9.50;99.90
56869;DHT22;42754;0.000;0.000;2022-12-20T07:55:05;9.50;99.90
56869;DHT22;42754;0.000;0.000;2022-12-20T07:57:39;9.60;99.90
56869;DHT22;42754;0.000;0.000;2022-12-20T08:00:06;9.60;99.90
56869;DHT22;42754;0.000;0.000;2022-12-20T08:02:37;9.60;99.90
56869;DHT22;42754;0.000;0.000;2022-12-20T08:05:04;9.60;99.90
56869;DHT22;42754;0.000;0.000;2022-12-20T08:07:31;9.60;99.90
56869;DHT22;42754;0.000;0.000;2022-12-20T08:09:57;9.60;99.90
56869;DHT22;42754;0.000;0.000;2022-12-20T08:12:23;9.60;99.90
56869;DHT22;42754;0.000;0.000;2022-12-20T08:14:50;9.60;99.90
56869;DHT22;42754;0.000;0.000;2022-12-20T08:17:20;9.60;99.90
56869;DHT22;42754;0.000;0.000;2022-12-20T08:19:46;9.60;99.90
56869;DHT22;42754;0.000;0.000;2022-12-20T08:22:13;9.60;99.90
56869;DHT22;42754;0.000;0.000;2022-12-20T08:24:40;9.60;99.90
56869;DHT22;42754;0.000;0.000;2022-12-20T08:27:05;9.60;99.90
56869;DHT22;42754;0.000;0.000;2022-12-20T08:29:31;9.60;99.90
56869;DHT22;42754;0.000;0.000;2022-12-20T08:31:56;9.60;99.90
56869;DHT22;42754;0.000;0.000;2022-12-20T08:34:22;9.60;99.90
56869;DHT22;42754;0.000;0.000;2022-12-20T08:36:48;9.60;99.90
56869;DHT22;42754;0.000;0.000;2022-12-20T08:39:14;9.60;99.90
56869;DHT22;42754;0.000;0.000;2022-12-20T08:41:40;9.70;99.90
56869;DHT22;42754;0.000;0.000;2022-12-20T08:44:06;9.70;99.90
56869;DHT22;42754;0.000;0.000;2022-12-20T08:46:31;9.80;99.90
56869;DHT22;42754;0.000;0.000;2022-12-20T08:48:57;9.70;99.90
56869;DHT22;42754;0.000;0.000;2022-12-20T08:51:22;9.80;99.90
56869;DHT22;42754;0.000;0.000;2022-12-20T08:53:48;9.80;99.90
56869;DHT22;42754;0.000;0.000;2022-12-20T08:56:14;9.80;99.90
56869;DHT22;42754;0.000;0.000;2022-12-20T08:58:41;9.80;99.90
56869;DHT22;42754;0.000;0.000;2022-12-20T09:01:08;9.80;99.90
56869;DHT22;42754;0.000;0.000;2022-12-20T09:03:34;9.80;99.90
56869;DHT22;42754;0.000;0.000;2022-12-20T09:06:00;9.80;99.90
56869;DHT22;42754;0.000;0.000;2022-12-20T09:08:29;9.90;99.90
56869;DHT22;42754;0.000;0.000;2022-12-20T09:11:01;9.90;99.90
56869;DHT22;42754;0.000;0.000;2022-12-20T09:13:27;9.90;99.90
56869;DHT22;42754;0.000;0.000;2022-12-20T09:15:53;10.00;99.90
56869;DHT22;42754;0.000;0.000;2022-12-20T09:18:18;10.00;99.90
56869;DHT22;42754;0.000;0.000;2022-12-20T09:20:44;10.00;99.90
56869;DHT22;42754;0.000;0.000;2022-12-20T09:23:10;10.00;99.90
56869;DHT22;42754;0.000;0.000;2022-12-20T09:25:36;10.00;99.90
56869;DHT22;42754;0.000;0.000;2022-12-20T09:28:02;9.90;99.90
56869;DHT22;42754;0.000;0.000;2022-12-20T09:30:27;9.90;99.90
56869;DHT22;42754;0.000;0.000;2022-12-20T09:32:53;9.90;99.90
56869;DHT22;42754;0.000;0.000;2022-12-20T09:35:18;9.90;99.90
56869;DHT22;42754;0.000;0.000;2022-12-20T09:37:44;9.80;99.90
56869;DHT22;42754;0.000;0.000;2022-12-20T09:40:15;9.80;99.90
56869;DHT22;42754;0.000;0.000;2022-12-20T09:42:42;9.80;99.90
56869;DHT22;42754;0.000;0.000;2022-12-20T09:45:07;9.80;99.90
56869;DHT22;42754;0.000;0.000;2022-12-20T09:47:34;9.80;99.90
56869;DHT22;42754;0.000;0.000;2022-12-20T09:50:00;9.80;99.90
56869;DHT22;42754;0.000;0.000;2022-12-20T09:55:25;9.80;99.90
56869;DHT22;42754;0.000;0.000;2022-12-20T10:00:20;9.90;99.90
56869;DHT22;42754;0.000;0.000;2022-12-20T10:02:46;9.90;99.90
56869;DHT22;42754;0.000;0.000;2022-12-20T10:05:12;9.90;99.90
56869;DHT22;42754;0.000;0.000;2022-12-20T10:07:47;9.90;99.90
56869;DHT22;42754;0.000;0.000;2022-12-20T10:10:18;9.90;99.90
56869;DHT22;42754;0.000;0.000;2022-12-20T10:15:31;9.90;99.90
56869;DHT22;42754;0.000;0.000;2022-12-20T10:20:36;9.90;99.90
56869;DHT22;42754;0.000;0.000;2022-12-20T10:23:08;9.90;99.90
56869;DHT22;42754;0.000;0.000;2022-12-20T10:25:35;9.90;99.90
56869;DHT22;42754;0.000;0.000;2022-12-20T10:28:02;9.90;99.90
56869;DHT22;42754;0.000;0.000;2022-12-20T10:30:28;9.90;99.90
56869;DHT22;42754;0.000;0.000;2022-12-20T10:32:56;9.90;99.90
56869;DHT22;42754;0.000;0.000;2022-12-20T10:35:29;9.90;99.90
56869;DHT22;42754;0.000;0.000;2022-12-20T10:38:03;9.90;99.90
56869;DHT22;42754;0.000;0.000;2022-12-20T10:40:30;9.90;99.90
56869;DHT22;42754;0.000;0.000;2022-12-20T10:42:56;9.90;99.90
56869;DHT22;42754;0.000;0.000;2022-12-20T10:47:48;9.90;99.90
56869;DHT22;42754;0.000;0.000;2022-12-20T10:50:19;9.90;99.90
56869;DHT22;42754;0.000;0.000;2022-12-20T10:53:01;9.90;99.90
56869;DHT22;42754;0.000;0.000;2022-12-20T10:55:34;9.90;99.90
56869;DHT22;42754;0.000;0.000;2022-12-20T10:58:04;9.90;99.90
56869;DHT22;42754;0.000;0.000;2022-12-20T11:00:30;9.90;99.90
56869;DHT22;42754;0.000;0.000;2022-12-20T11:03:17;9.90;99.90
56869;DHT22;42754;0.000;0.000;2022-12-20T11:05:53;9.90;99.90
56869;DHT22;42754;0.000;0.000;2022-12-20T11:08:20;9.90;99.90
56869;DHT22;42754;0.000;0.000;2022-12-20T11:10:46;9.90;99.90
56869;DHT22;42754;0.000;0.000;2022-12-20T11:13:21;9.90;99.90
56869;DHT22;42754;0.000;0.000;2022-12-20T11:15:49;9.90;99.90
56869;DHT22;42754;0.000;0.000;2022-12-20T11:18:29;9.90;99.90
56869;DHT22;42754;0.000;0.000;2022-12-20T11:23:46;9.90;99.90
56869;DHT22;42754;0.000;0.000;2022-12-20T11:29:02;10.00;99.90
56869;DHT22;42754;0.000;0.000;2022-12-20T11:49:31;10.10;99.90
56869;DHT22;42754;0.000;0.000;2022-12-20T11:56:58;10.10;99.90
56869;DHT22;42754;0.000;0.000;2022-12-20T11:59:37;10.10;99.90
56869;DHT22;42754;0.000;0.000;2022-12-20T12:04:37;10.10;99.90
56869;DHT22;42754;0.000;0.000;2022-12-20T12:07:07;10.10;99.90
56869;DHT22;42754;0.000;0.000;2022-12-20T12:17:17;10.10;99.90
56869;DHT22;42754;0.000;0.000;2022-12-20T12:19:46;10.10;99.90
56869;DHT22;42754;0.000;0.000;2022-12-20T12:22:15;10.20;99.90
56869;DHT22;42754;0.000;0.000;2022-12-20T12:24:45;10.20;99.90
56869;DHT22;42754;0.000;0.000;2022-12-20T12:27:23;10.20;99.90
56869;DHT22;42754;0.000;0.000;2022-12-20T12:29:50;10.20;99.90
56869;DHT22;42754;0.000;0.000;2022-12-20T12:40:11;10.30;99.90
56869;DHT22;42754;0.000;0.000;2022-12-20T12:45:13;10.30;99.90
56869;DHT22;42754;0.000;0.000;2022-12-20T12:50:07;10.30;99.90
56869;DHT22;42754;0.000;0.000;2022-12-20T12:54:59;10.30;99.90
56869;DHT22;42754;0.000;0.000;2022-12-20T12:57:25;10.30;99.90
56869;DHT22;42754;0.000;0.000;2022-12-20T12:59:50;10.30;99.90
56869;DHT22;42754;0.000;0.000;2022-12-20T13:09:57;10.30;99.90
56869;DHT22;42754;0.000;0.000;2022-12-20T13:17:47;10.30;99.90
56869;DHT22;42754;0.000;0.000;2022-12-20T13:25:36;10.40;99.90
56869;DHT22;42754;0.000;0.000;2022-12-20T13:33:38;10.40;99.90
56869;DHT22;42754;0.000;0.000;2022-12-20T13:41:17;10.40;99.90
56869;DHT22;42754;0.000;0.000;2022-12-20T13:43:44;10.40;99.90
56869;DHT22;42754;0.000;0.000;2022-12-20T13:51:15;10.40;99.90
56869;DHT22;42754;0.000;0.000;2022-12-20T13:53:46;10.40;99.90
56869;DHT22;42754;0.000;0.000;2022-12-20T13:58:55;10.40;99.90
56869;DHT22;42754;0.000;0.000;2022-12-20T14:01:22;10.40;99.90
56869;DHT22;42754;0.000;0.000;2022-12-20T14:03:48;10.40;99.90
56869;DHT22;42754;0.000;0.000;2022-12-20T14:06:15;10.40;99.90
56869;DHT22;42754;0.000;0.000;2022-12-20T14:08:45;10.40;99.90
56869;DHT22;42754;0.000;0.000;2022-12-20T14:11:15;10.40;99.90
56869;DHT22;42754;0.000;0.000;2022-12-20T14:13:53;10.40;99.90
56869;DHT22;42754;0.000;0.000;2022-12-20T14:16:20;10.40;99.90
56869;DHT22;42754;0.000;0.000;2022-12-20T14:18:49;10.40;99.90
56869;DHT22;42754;0.000;0.000;2022-12-20T14:21:15;10.40;99.90
56869;DHT22;42754;0.000;0.000;2022-12-20T14:23:45;10.40;99.90
56869;DHT22;42754;0.000;0.000;2022-12-20T14:26:16;10.40;99.90
56869;DHT22;42754;0.000;0.000;2022-12-20T14:28:43;10.40;99.90
56869;DHT22;42754;0.000;0.000;2022-12-20T14:33:59;10.40;99.90
56869;DHT22;42754;0.000;0.000;2022-12-20T14:36:26;10.40;99.90
56869;DHT22;42754;0.000;0.000;2022-12-20T14:38:52;10.40;99.90
56869;DHT22;42754;0.000;0.000;2022-12-20T14:43:53;10.40;99.90
56869;DHT22;42754;0.000;0.000;2022-12-20T14:46:19;10.40;99.90
56869;DHT22;42754;0.000;0.000;2022-12-20T14:48:46;10.40;99.90
56869;DHT22;42754;0.000;0.000;2022-12-20T14:51:13;10.30;99.90
56869;DHT22;42754;0.000;0.000;2022-12-20T14:53:43;10.40;99.90
56869;DHT22;42754;0.000;0.000;2022-12-20T14:56:13;10.40;99.90
56869;DHT22;42754;0.000;0.000;2022-12-20T14:58:40;10.40;99.90
56869;DHT22;42754;0.000;0.000;2022-12-20T15:01:26;10.40;99.90
56869;DHT22;42754;0.000;0.000;2022-12-20T15:03:56;10.40;99.90
56869;DHT22;42754;0.000;0.000;2022-12-20T15:06:30;10.40;99.90
56869;DHT22;42754;0.000;0.000;2022-12-20T15:08:55;10.40;99.90
56869;DHT22;42754;0.000;0.000;2022-12-20T15:11:21;10.40;99.90
56869;DHT22;42754;0.000;0.000;2022-12-20T15:13:47;10.40;99.90
56869;DHT22;42754;0.000;0.000;2022-12-20T15:16:19;10.30;99.90
56869;DHT22;42754;0.000;0.000;2022-12-20T15:18:49;10.30;99.90
56869;DHT22;42754;0.000;0.000;2022-12-20T15:23:47;10.30;99.90
56869;DHT22;42754;0.000;0.000;2022-12-20T15:26:14;10.30;99.90
56869;DHT22;42754;0.000;0.000;2022-12-20T15:28:40;10.30;99.90
56869;DHT22;42754;0.000;0.000;2022-12-20T15:31:05;10.30;99.90
56869;DHT22;42754;0.000;0.000;2022-12-20T15:33:36;10.30;99.90
56869;DHT22;42754;0.000;0.000;2022-12-20T15:36:02;10.30;99.90
56869;DHT22;42754;0.000;0.000;2022-12-20T15:38:28;10.30;99.90
56869;DHT22;42754;0.000;0.000;2022-12-20T15:40:54;10.30;99.90
56869;DHT22;42754;0.000;0.000;2022-12-20T15:43:21;10.30;99.90
56869;DHT22;42754;0.000;0.000;2022-12-20T15:45:51;10.30;99.90
56869;DHT22;42754;0.000;0.000;2022-12-20T15:48:21;10.30;99.90
56869;DHT22;42754;0.000;0.000;2022-12-20T15:50:48;10.30;99.90
56869;DHT22;42754;0.000;0.000;2022-12-20T15:53:15;10.30;99.90
56869;DHT22;42754;0.000;0.000;2022-12-20T15:55:41;10.30;99.90
56869;DHT22;42754;0.000;0.000;2022-12-20T15:58:07;10.30;99.90
56869;DHT22;42754;0.000;0.000;2022-12-20T16:00:38;10.30;99.90
56869;DHT22;42754;0.000;0.000;2022-12-20T16:03:13;10.20;99.90
56869;DHT22;42754;0.000;0.000;2022-12-20T16:05:40;10.30;99.90
56869;DHT22;42754;0.000;0.000;2022-12-20T16:08:06;10.20;99.90
56869;DHT22;42754;0.000;0.000;2022-12-20T16:10:32;10.20;99.90
56869;DHT22;42754;0.000;0.000;2022-12-20T16:12:57;10.20;99.90
56869;DHT22;42754;0.000;0.000;2022-12-20T16:15:23;10.20;99.90
56869;DHT22;42754;0.000;0.000;2022-12-20T16:17:50;10.30;99.90
56869;DHT22;42754;0.000;0.000;2022-12-20T16:20:15;10.30;99.90
56869;DHT22;42754;0.000;0.000;2022-12-20T16:22:41;10.20;99.90
56869;DHT22;42754;0.000;0.000;2022-12-20T16:25:11;10.20;99.90
56869;DHT22;42754;0.000;0.000;2022-12-20T16:27:44;10.20;99.90
56869;DHT22;42754;0.000;0.000;2022-12-20T16:30:10;10.20;99.90
56869;DHT22;42754;0.000;0.000;2022-12-20T16:32:36;10.20;99.90
56869;DHT22;42754;0.000;0.000;2022-12-20T16:35:01;10.20;99.90
56869;DHT22;42754;0.000;0.000;2022-12-20T16:37:27;10.20;99.90
56869;DHT22;42754;0.000;0.000;2022-12-20T16:39:54;10.20;99.90
56869;DHT22;42754;0.000;0.000;2022-12-20T16:42:19;10.20;99.90
56869;DHT22;42754;0.000;0.000;2022-12-20T16:44:50;10.20;99.90
56869;DHT22;42754;0.000;0.000;2022-12-20T16:47:16;10.20;99.90
56869;DHT22;42754;0.000;0.000;2022-12-20T16:49:41;10.20;99.90
56869;DHT22;42754;0.000;0.000;2022-12-20T16:52:11;10.20;99.90
56869;DHT22;42754;0.000;0.000;2022-12-20T16:54:39;10.20;99.90
56869;DHT22;42754;0.000;0.000;2022-12-20T16:57:05;10.20;99.90
56869;DHT22;42754;0.000;0.000;2022-12-20T16:59:31;10.20;99.90
56869;DHT22;42754;0.000;0.000;2022-12-20T17:01:57;10.20;99.90
56869;DHT22;42754;0.000;0.000;2022-12-20T17:04:23;10.20;99.90
56869;DHT22;42754;0.000;0.000;2022-12-20T17:06:48;10.20;99.90
56869;DHT22;42754;0.000;0.000;2022-12-20T17:09:14;10.20;99.90
56869;DHT22;42754;0.000;0.000;2022-12-20T17:11:40;10.20;99.90
56869;DHT22;42754;0.000;0.000;2022-12-20T17:14:06;10.20;99.90
56869;DHT22;42754;0.000;0.000;2022-12-20T17:16:31;10.20;99.90
56869;DHT22;42754;0.000;0.000;2022-12-20T17:18:58;10.20;99.90
56869;DHT22;42754;0.000;0.000;2022-12-20T17:23:53;10.20;99.90
56869;DHT22;42754;0.000;0.000;2022-12-20T17:26:22;10.20;99.90
56869;DHT22;42754;0.000;0.000;2022-12-20T17:28:50;10.20;99.90
56869;DHT22;42754;0.000;0.000;2022-12-20T17:31:29;10.20;99.90
56869;DHT22;42754;0.000;0.000;2022-12-20T17:34:00;10.20;99.90
56869;DHT22;42754;0.000;0.000;2022-12-20T17:36:26;10.10;99.90
56869;DHT22;42754;0.000;0.000;2022-12-20T17:38:53;10.20;99.90
56869;DHT22;42754;0.000;0.000;2022-12-20T17:41:19;10.20;99.90
56869;DHT22;42754;0.000;0.000;2022-12-20T17:43:45;10.20;99.90
56869;DHT22;42754;0.000;0.000;2022-12-20T17:46:11;10.20;99.90
56869;DHT22;42754;0.000;0.000;2022-12-20T17:48:38;10.10;99.90
56869;DHT22;42754;0.000;0.000;2022-12-20T17:51:08;10.10;99.90
56869;DHT22;42754;0.000;0.000;2022-12-20T17:53:35;10.10;99.90
56869;DHT22;42754;0.000;0.000;2022-12-20T17:56:01;10.10;99.90
56869;DHT22;42754;0.000;0.000;2022-12-20T17:58:27;10.10;99.90
56869;DHT22;42754;0.000;0.000;2022-12-20T18:00:52;10.10;99.90
56869;DHT22;42754;0.000;0.000;2022-12-20T18:03:18;10.10;99.90
56869;DHT22;42754;0.000;0.000;2022-12-20T18:05:43;10.10;99.90
56869;DHT22;42754;0.000;0.000;2022-12-20T18:08:09;10.10;99.90
56869;DHT22;42754;0.000;0.000;2022-12-20T18:10:34;10.10;99.90